RJEO(METAR)
05/30 14:00
RJEO 300500Z 16006KT CAVOK 16/13 Q1019 RMK A3010=
戻る
トップページへ戻る
IMOC Co,.Ltd.